createdAt,value
2019-02-19T04:38:15.911Z,3.03
2019-02-19T08:54:47.213Z,18.04
2019-02-19T08:59:53.337Z,19.01
2019-02-19T09:04:50.269Z,19.50
2019-02-19T09:09:47.253Z,19.29
2019-02-19T09:17:33.856Z,18.43
2019-02-19T09:22:32.322Z,18.99
2019-02-19T09:27:29.473Z,18.68
2019-02-19T09:32:28.467Z,18.74
2019-02-19T09:37:28.739Z,18.11
2019-02-19T09:42:33.327Z,18.79
2019-02-19T09:47:37.858Z,18.79
2019-02-19T09:52:37.458Z,18.72
2019-02-19T09:57:34.547Z,18.21
2019-02-19T10:02:38.877Z,18.01
2019-02-19T10:07:35.034Z,17.55
2019-02-19T10:12:34.489Z,17.98
2019-02-19T10:17:31.504Z,18.56
2019-02-19T10:22:30.460Z,19.17
2019-02-19T10:27:29.327Z,19.88
2019-02-19T10:32:41.562Z,19.58
2019-02-19T10:37:39.048Z,19.45
2019-02-19T10:42:37.154Z,18.67
2019-02-19T10:47:35.856Z,18.44
2019-02-19T10:52:34.765Z,18.44
2019-02-19T10:57:31.825Z,18.77
2019-02-19T11:02:33.074Z,18.13
2019-02-19T11:07:33.360Z,19.21
2019-02-19T11:12:30.357Z,19.80
2019-02-19T11:18:03.708Z,19.73
2019-02-19T11:22:28.891Z,19.65
2019-02-19T11:27:28.178Z,20.00
2019-02-19T11:32:26.401Z,19.10
2019-02-19T11:37:26.180Z,19.13
2019-02-19T11:42:23.262Z,18.52
2019-02-19T11:47:26.660Z,18.63
2019-02-19T11:52:22.319Z,18.76
2019-02-19T11:57:21.464Z,18.77
2019-02-19T12:02:18.704Z,18.22
2019-02-19T12:07:20.283Z,17.89
2019-02-19T12:12:17.555Z,17.26
2019-02-19T12:17:14.953Z,17.51
2019-02-19T12:22:15.351Z,16.08
2019-02-19T12:27:14.289Z,17.00
2019-02-19T12:32:18.242Z,15.85
2019-02-19T12:37:18.233Z,15.75
2019-02-19T12:42:17.263Z,16.44
2019-02-19T12:47:16.866Z,16.82
2019-02-19T12:52:15.785Z,16.75
2019-02-19T12:57:14.680Z,16.58
2019-02-19T13:02:11.958Z,16.31
2019-02-19T13:07:11.782Z,16.72
2019-02-19T13:12:10.614Z,16.32
2019-02-19T13:17:37.732Z,16.15
2019-02-19T13:22:36.737Z,15.70
2019-02-19T13:27:35.236Z,15.62
2019-02-19T13:32:38.299Z,15.62
2019-02-19T13:37:33.202Z,15.56
2019-02-19T13:42:33.890Z,15.50
2019-02-19T13:47:35.071Z,15.09
2019-02-19T13:52:34.604Z,15.04
2019-02-19T13:57:31.800Z,14.94
2019-02-19T14:02:30.841Z,14.81
2019-02-19T14:07:30.413Z,14.74
2019-02-19T14:12:27.660Z,14.82
2019-02-19T14:17:26.545Z,14.44
2019-02-19T14:22:29.227Z,14.23
2019-02-19T14:27:28.029Z,14.10
2019-02-19T14:32:27.651Z,13.95
2019-02-19T14:37:26.448Z,13.84
2019-02-19T14:42:32.016Z,13.76
2019-02-19T14:47:34.170Z,13.68
2019-02-19T14:52:49.582Z,13.44
2019-02-19T14:57:55.759Z,13.50
2019-02-19T15:03:02.854Z,13.37
2019-02-19T15:08:18.928Z,13.26
2019-02-19T15:13:25.654Z,13.14
2019-02-19T15:18:34.759Z,12.99
2019-02-19T15:23:39.688Z,12.91
2019-02-19T15:28:49.051Z,12.67
2019-02-19T15:33:47.817Z,12.40
2019-02-19T15:38:49.149Z,12.36
2019-02-19T15:43:59.943Z,12.04
2019-02-19T15:49:01.779Z,11.86
2019-02-19T15:54:17.498Z,11.93
2019-02-19T15:59:19.430Z,11.95
2019-02-19T16:04:24.631Z,11.61
2019-02-19T16:09:30.752Z,11.60
2019-02-19T16:14:41.676Z,11.46
2019-02-19T16:19:40.535Z,11.19
2019-02-19T16:24:48.620Z,11.02
2019-02-19T16:29:50.477Z,10.99
2019-02-19T16:34:52.600Z,10.66
2019-02-19T16:39:54.560Z,10.85
2019-02-19T16:45:09.964Z,10.77
2019-02-19T16:50:22.796Z,10.58
2019-02-19T16:55:37.047Z,10.56
2019-02-19T17:00:50.775Z,10.29
2019-02-19T17:05:58.505Z,10.31
2019-02-19T17:10:57.290Z,10.17
2019-02-19T17:15:56.058Z,9.95
2019-02-19T17:21:08.109Z,9.78
2019-02-19T17:26:09.937Z,9.64
2019-02-19T17:31:16.126Z,9.34
2019-02-19T17:36:18.471Z,9.24
2019-02-19T17:41:20.650Z,9.22
2019-02-19T17:46:26.922Z,9.46
2019-02-19T17:51:28.606Z,9.01
2019-02-19T17:56:33.220Z,9.03
2019-02-19T18:01:39.157Z,8.90
2019-02-19T18:06:47.253Z,8.70
2019-02-19T18:11:55.139Z,8.71
2019-02-19T18:16:58.373Z,8.40
2019-02-19T18:21:58.165Z,8.24
2019-02-19T18:26:55.255Z,8.47
2019-02-19T18:31:52.450Z,8.50
2019-02-19T18:36:49.444Z,8.33
2019-02-19T18:41:46.502Z,8.31
2019-02-19T18:46:43.544Z,8.09
2019-02-19T18:51:40.586Z,8.01
2019-02-19T18:56:37.574Z,8.04
2019-02-19T19:01:34.503Z,7.86
2019-02-19T19:06:31.504Z,7.66
2019-02-19T19:11:28.626Z,7.66
2019-02-19T19:16:25.648Z,7.77
2019-02-19T19:21:23.211Z,7.87
2019-02-19T19:26:30.938Z,7.91
2019-02-19T19:31:33.563Z,7.82
2019-02-19T19:36:26.817Z,7.76
2019-02-19T19:41:24.609Z,7.78
2019-02-19T19:46:21.829Z,7.67
2019-02-19T19:51:18.888Z,7.62
2019-02-19T19:56:17.129Z,7.50
2019-02-19T20:01:15.864Z,7.48
2019-02-19T20:06:13.091Z,7.43
2019-02-19T20:11:10.243Z,7.49
2019-02-19T20:16:07.380Z,7.36
2019-02-19T20:21:05.098Z,7.40
2019-02-19T20:26:02.495Z,7.44
2019-02-19T20:30:59.630Z,7.57
2019-02-19T20:35:56.735Z,7.61
2019-02-19T20:40:53.805Z,7.97
2019-02-19T20:45:51.312Z,8.08
2019-02-19T20:50:48.255Z,7.91
2019-02-19T20:55:45.262Z,7.55
2019-02-19T21:00:42.311Z,7.42
2019-02-19T21:05:39.309Z,7.27
2019-02-19T21:10:36.327Z,7.21
2019-02-19T21:15:33.483Z,7.06
2019-02-19T21:20:30.448Z,6.96
2019-02-19T21:25:30.993Z,6.88
2019-02-19T21:30:27.158Z,7.11
2019-02-19T21:35:25.176Z,6.93
2019-02-19T21:40:23.980Z,6.96
2019-02-19T21:45:21.070Z,6.86
2019-02-19T21:50:18.159Z,6.60
2019-02-19T21:55:15.212Z,6.84
2019-02-19T22:00:19.866Z,6.78
2019-02-19T22:05:16.931Z,6.72
2019-02-19T22:10:14.210Z,6.74
2019-02-19T22:15:12.935Z,6.63
2019-02-19T22:20:21.368Z,6.58
2019-02-19T22:25:18.342Z,6.59
2019-02-19T22:30:15.440Z,6.55
2019-02-19T22:35:12.419Z,6.63
2019-02-19T22:40:09.544Z,6.54
2019-02-19T22:45:08.852Z,6.52
2019-02-19T22:50:08.243Z,6.49
2019-02-19T22:55:09.874Z,6.38
2019-02-19T23:00:33.970Z,6.34
2019-02-19T23:05:30.915Z,6.29
2019-02-19T23:10:27.961Z,6.11
2019-02-19T23:15:25.000Z,6.16
2019-02-19T23:20:22.050Z,6.13
2019-02-19T23:25:19.044Z,6.06
2019-02-19T23:30:16.131Z,5.93
2019-02-19T23:35:22.066Z,5.93
2019-02-19T23:40:20.405Z,5.95
2019-02-19T23:45:17.472Z,5.92
2019-02-19T23:50:14.601Z,5.79
2019-02-19T23:55:11.697Z,5.73
